sensor_id;sensor_type;location;lat;lon;timestamp;P1;durP1;ratioP1;P2;durP2;ratioP2
55493;SDS011;41355;50.390;19.096;2023-04-06T00:01:32;21.80;;;8.38;;
55493;SDS011;41355;50.390;19.096;2023-04-06T00:04:00;33.33;;;9.50;;
55493;SDS011;41355;50.390;19.096;2023-04-06T00:06:26;23.25;;;8.85;;
55493;SDS011;41355;50.390;19.096;2023-04-06T00:08:52;22.63;;;9.40;;
55493;SDS011;41355;50.390;19.096;2023-04-06T00:11:18;30.63;;;10.98;;
55493;SDS011;41355;50.390;19.096;2023-04-06T00:13:44;30.55;;;11.00;;
55493;SDS011;41355;50.390;19.096;2023-04-06T00:16:10;25.23;;;9.45;;
55493;SDS011;41355;50.390;19.096;2023-04-06T00:18:36;26.58;;;9.82;;
55493;SDS011;41355;50.390;19.096;2023-04-06T00:21:03;31.30;;;10.25;;
55493;SDS011;41355;50.390;19.096;2023-04-06T00:23:29;22.95;;;8.32;;
55493;SDS011;41355;50.390;19.096;2023-04-06T00:25:55;21.33;;;8.82;;
55493;SDS011;41355;50.390;19.096;2023-04-06T00:28:21;20.85;;;8.50;;
55493;SDS011;41355;50.390;19.096;2023-04-06T00:30:51;22.10;;;8.13;;
55493;SDS011;41355;50.390;19.096;2023-04-06T00:33:18;25.67;;;8.30;;
55493;SDS011;41355;50.390;19.096;2023-04-06T00:35:44;27.83;;;10.23;;
55493;SDS011;41355;50.390;19.096;2023-04-06T00:38:11;27.50;;;9.55;;
55493;SDS011;41355;50.390;19.096;2023-04-06T00:40:37;29.75;;;9.52;;
55493;SDS011;41355;50.390;19.096;2023-04-06T00:43:05;25.33;;;8.70;;
55493;SDS011;41355;50.390;19.096;2023-04-06T00:45:32;23.45;;;8.77;;
55493;SDS011;41355;50.390;19.096;2023-04-06T00:47:58;24.92;;;10.27;;
55493;SDS011;41355;50.390;19.096;2023-04-06T00:50:24;25.30;;;9.20;;
55493;SDS011;41355;50.390;19.096;2023-04-06T00:52:51;27.77;;;10.20;;
55493;SDS011;41355;50.390;19.096;2023-04-06T00:55:17;27.20;;;8.85;;
55493;SDS011;41355;50.390;19.096;2023-04-06T00:57:43;28.63;;;9.85;;
55493;SDS011;41355;50.390;19.096;2023-04-06T01:00:09;22.35;;;9.32;;
55493;SDS011;41355;50.390;19.096;2023-04-06T01:02:36;22.77;;;9.40;;
55493;SDS011;41355;50.390;19.096;2023-04-06T01:05:02;24.30;;;9.40;;
55493;SDS011;41355;50.390;19.096;2023-04-06T01:07:28;29.17;;;9.10;;
55493;SDS011;41355;50.390;19.096;2023-04-06T01:09:54;24.60;;;10.25;;
55493;SDS011;41355;50.390;19.096;2023-04-06T01:12:20;23.10;;;9.73;;
55493;SDS011;41355;50.390;19.096;2023-04-06T01:14:46;22.05;;;7.80;;
55493;SDS011;41355;50.390;19.096;2023-04-06T01:17:12;28.98;;;10.00;;
55493;SDS011;41355;50.390;19.096;2023-04-06T01:19:38;26.25;;;10.20;;
55493;SDS011;41355;50.390;19.096;2023-04-06T01:22:05;22.42;;;9.52;;
55493;SDS011;41355;50.390;19.096;2023-04-06T01:24:32;23.95;;;9.98;;
55493;SDS011;41355;50.390;19.096;2023-04-06T01:26:58;21.40;;;9.00;;
55493;SDS011;41355;50.390;19.096;2023-04-06T01:29:26;27.85;;;10.27;;
55493;SDS011;41355;50.390;19.096;2023-04-06T01:31:52;23.25;;;8.18;;
55493;SDS011;41355;50.390;19.096;2023-04-06T01:34:18;25.58;;;9.48;;
55493;SDS011;41355;50.390;19.096;2023-04-06T01:36:44;26.35;;;9.35;;
55493;SDS011;41355;50.390;19.096;2023-04-06T01:39:10;13.57;;;5.85;;
55493;SDS011;41355;50.390;19.096;2023-04-06T01:41:36;23.35;;;7.35;;
55493;SDS011;41355;50.390;19.096;2023-04-06T01:44:02;23.58;;;9.48;;
55493;SDS011;41355;50.390;19.096;2023-04-06T01:46:28;31.15;;;9.43;;
55493;SDS011;41355;50.390;19.096;2023-04-06T01:48:54;31.17;;;10.85;;
55493;SDS011;41355;50.390;19.096;2023-04-06T01:51:20;20.27;;;8.63;;
55493;SDS011;41355;50.390;19.096;2023-04-06T01:53:46;24.55;;;9.27;;
55493;SDS011;41355;50.390;19.096;2023-04-06T01:56:14;20.92;;;8.82;;
55493;SDS011;41355;50.390;19.096;2023-04-06T01:58:40;29.65;;;10.75;;
55493;SDS011;41355;50.390;19.096;2023-04-06T02:01:06;26.38;;;10.75;;
55493;SDS011;41355;50.390;19.096;2023-04-06T02:03:32;23.75;;;8.82;;
55493;SDS011;41355;50.390;19.096;2023-04-06T02:05:58;29.60;;;10.20;;
55493;SDS011;41355;50.390;19.096;2023-04-06T02:08:24;26.80;;;9.45;;
55493;SDS011;41355;50.390;19.096;2023-04-06T02:10:50;28.95;;;10.60;;
55493;SDS011;41355;50.390;19.096;2023-04-06T02:13:17;24.75;;;9.27;;
55493;SDS011;41355;50.390;19.096;2023-04-06T02:15:43;25.38;;;9.60;;
55493;SDS011;41355;50.390;19.096;2023-04-06T02:18:09;22.75;;;8.80;;
55493;SDS011;41355;50.390;19.096;2023-04-06T02:20:35;27.45;;;10.35;;
55493;SDS011;41355;50.390;19.096;2023-04-06T02:23:01;21.90;;;9.32;;
55493;SDS011;41355;50.390;19.096;2023-04-06T02:25:27;25.73;;;9.48;;
55493;SDS011;41355;50.390;19.096;2023-04-06T02:27:53;28.23;;;10.50;;
55493;SDS011;41355;50.390;19.096;2023-04-06T02:30:20;21.00;;;8.07;;
55493;SDS011;41355;50.390;19.096;2023-04-06T02:32:46;25.90;;;9.70;;
55493;SDS011;41355;50.390;19.096;2023-04-06T02:35:12;26.92;;;9.50;;
55493;SDS011;41355;50.390;19.096;2023-04-06T02:37:38;23.23;;;9.20;;
55493;SDS011;41355;50.390;19.096;2023-04-06T02:40:04;23.10;;;7.38;;
55493;SDS011;41355;50.390;19.096;2023-04-06T02:42:31;24.00;;;9.43;;
55493;SDS011;41355;50.390;19.096;2023-04-06T02:44:57;22.88;;;9.00;;
55493;SDS011;41355;50.390;19.096;2023-04-06T02:47:23;22.38;;;8.35;;
55493;SDS011;41355;50.390;19.096;2023-04-06T02:49:49;27.95;;;8.02;;
55493;SDS011;41355;50.390;19.096;2023-04-06T02:52:16;23.60;;;9.70;;
55493;SDS011;41355;50.390;19.096;2023-04-06T02:54:43;27.65;;;9.00;;
55493;SDS011;41355;50.390;19.096;2023-04-06T02:57:09;24.30;;;8.55;;
55493;SDS011;41355;50.390;19.096;2023-04-06T02:59:35;21.65;;;9.35;;
55493;SDS011;41355;50.390;19.096;2023-04-06T03:02:01;25.48;;;9.45;;
55493;SDS011;41355;50.390;19.096;2023-04-06T03:04:27;24.08;;;7.85;;
55493;SDS011;41355;50.390;19.096;2023-04-06T03:06:53;25.83;;;9.15;;
55493;SDS011;41355;50.390;19.096;2023-04-06T03:09:20;19.73;;;8.32;;
55493;SDS011;41355;50.390;19.096;2023-04-06T03:11:47;25.20;;;9.77;;
55493;SDS011;41355;50.390;19.096;2023-04-06T03:14:13;22.90;;;7.88;;
55493;SDS011;41355;50.390;19.096;2023-04-06T03:16:39;17.73;;;8.18;;
55493;SDS011;41355;50.390;19.096;2023-04-06T03:19:05;24.15;;;8.43;;
55493;SDS011;41355;50.390;19.096;2023-04-06T03:21:31;17.73;;;6.50;;
55493;SDS011;41355;50.390;19.096;2023-04-06T03:23:57;22.60;;;7.10;;
55493;SDS011;41355;50.390;19.096;2023-04-06T03:26:23;22.10;;;8.15;;
55493;SDS011;41355;50.390;19.096;2023-04-06T03:28:49;22.90;;;8.57;;
55493;SDS011;41355;50.390;19.096;2023-04-06T03:31:15;17.10;;;6.05;;
55493;SDS011;41355;50.390;19.096;2023-04-06T03:33:42;26.73;;;8.50;;
55493;SDS011;41355;50.390;19.096;2023-04-06T03:36:08;18.73;;;7.07;;
55493;SDS011;41355;50.390;19.096;2023-04-06T03:38:34;24.30;;;8.05;;
55493;SDS011;41355;50.390;19.096;2023-04-06T03:41:00;20.55;;;7.75;;
55493;SDS011;41355;50.390;19.096;2023-04-06T03:43:26;23.08;;;7.93;;
55493;SDS011;41355;50.390;19.096;2023-04-06T03:45:52;22.60;;;6.85;;
55493;SDS011;41355;50.390;19.096;2023-04-06T03:48:18;25.73;;;8.43;;
55493;SDS011;41355;50.390;19.096;2023-04-06T03:50:45;19.63;;;7.53;;
55493;SDS011;41355;50.390;19.096;2023-04-06T03:53:10;18.77;;;7.70;;
55493;SDS011;41355;50.390;19.096;2023-04-06T03:55:36;19.92;;;7.43;;
55493;SDS011;41355;50.390;19.096;2023-04-06T03:58:03;21.80;;;6.70;;
55493;SDS011;41355;50.390;19.096;2023-04-06T04:00:29;17.08;;;7.47;;
55493;SDS011;41355;50.390;19.096;2023-04-06T04:02:55;22.23;;;7.93;;
55493;SDS011;41355;50.390;19.096;2023-04-06T04:05:21;20.73;;;7.35;;
55493;SDS011;41355;50.390;19.096;2023-04-06T04:07:53;24.27;;;7.47;;
55493;SDS011;41355;50.390;19.096;2023-04-06T04:10:19;19.88;;;7.45;;
55493;SDS011;41355;50.390;19.096;2023-04-06T04:12:45;31.58;;;8.07;;
55493;SDS011;41355;50.390;19.096;2023-04-06T04:15:11;20.63;;;7.30;;
55493;SDS011;41355;50.390;19.096;2023-04-06T04:17:37;24.88;;;7.35;;
55493;SDS011;41355;50.390;19.096;2023-04-06T04:20:03;21.50;;;8.07;;
55493;SDS011;41355;50.390;19.096;2023-04-06T04:22:29;31.50;;;6.45;;
55493;SDS011;41355;50.390;19.096;2023-04-06T04:24:55;28.08;;;7.32;;
55493;SDS011;41355;50.390;19.096;2023-04-06T04:27:21;23.77;;;6.95;;
55493;SDS011;41355;50.390;19.096;2023-04-06T04:29:47;19.70;;;7.03;;
55493;SDS011;41355;50.390;19.096;2023-04-06T04:32:14;19.60;;;7.18;;
55493;SDS011;41355;50.390;19.096;2023-04-06T04:34:40;18.30;;;7.22;;
55493;SDS011;41355;50.390;19.096;2023-04-06T04:37:06;18.80;;;6.97;;
55493;SDS011;41355;50.390;19.096;2023-04-06T04:39:32;23.10;;;5.65;;
55493;SDS011;41355;50.390;19.096;2023-04-06T04:41:58;7.88;;;3.33;;
55493;SDS011;41355;50.390;19.096;2023-04-06T04:44:24;15.85;;;6.75;;
55493;SDS011;41355;50.390;19.096;2023-04-06T04:46:51;14.63;;;6.50;;
55493;SDS011;41355;50.390;19.096;2023-04-06T04:49:17;17.50;;;6.38;;
55493;SDS011;41355;50.390;19.096;2023-04-06T04:51:43;17.20;;;6.97;;
55493;SDS011;41355;50.390;19.096;2023-04-06T04:54:09;21.80;;;6.72;;
55493;SDS011;41355;50.390;19.096;2023-04-06T04:56:36;16.98;;;6.03;;
55493;SDS011;41355;50.390;19.096;2023-04-06T04:59:02;15.05;;;5.78;;
55493;SDS011;41355;50.390;19.096;2023-04-06T05:01:28;18.10;;;7.15;;
55493;SDS011;41355;50.390;19.096;2023-04-06T05:03:54;21.52;;;7.28;;
55493;SDS011;41355;50.390;19.096;2023-04-06T05:06:20;19.63;;;6.57;;
55493;SDS011;41355;50.390;19.096;2023-04-06T05:08:46;14.40;;;5.00;;
55493;SDS011;41355;50.390;19.096;2023-04-06T05:11:12;24.42;;;6.05;;
55493;SDS011;41355;50.390;19.096;2023-04-06T05:13:38;15.73;;;5.82;;
55493;SDS011;41355;50.390;19.096;2023-04-06T05:16:04;14.10;;;5.90;;
55493;SDS011;41355;50.390;19.096;2023-04-06T05:18:30;18.00;;;5.57;;
55493;SDS011;41355;50.390;19.096;2023-04-06T05:20:56;12.00;;;4.75;;
55493;SDS011;41355;50.390;19.096;2023-04-06T05:23:22;19.00;;;5.68;;
55493;SDS011;41355;50.390;19.096;2023-04-06T05:25:48;15.77;;;6.53;;
55493;SDS011;41355;50.390;19.096;2023-04-06T05:28:15;18.92;;;8.27;;
55493;SDS011;41355;50.390;19.096;2023-04-06T05:30:41;17.13;;;5.40;;
55493;SDS011;41355;50.390;19.096;2023-04-06T05:33:08;17.65;;;6.28;;
55493;SDS011;41355;50.390;19.096;2023-04-06T05:35:34;15.82;;;6.13;;
55493;SDS011;41355;50.390;19.096;2023-04-06T05:38:00;14.13;;;5.93;;
55493;SDS011;41355;50.390;19.096;2023-04-06T05:40:26;12.25;;;5.28;;
55493;SDS011;41355;50.390;19.096;2023-04-06T05:42:52;12.88;;;5.68;;
55493;SDS011;41355;50.390;19.096;2023-04-06T05:45:19;18.35;;;5.68;;
55493;SDS011;41355;50.390;19.096;2023-04-06T05:47:46;18.20;;;6.00;;
55493;SDS011;41355;50.390;19.096;2023-04-06T05:50:13;14.57;;;6.32;;
55493;SDS011;41355;50.390;19.096;2023-04-06T05:52:39;18.08;;;6.82;;
55493;SDS011;41355;50.390;19.096;2023-04-06T05:55:08;9.23;;;3.28;;
55493;SDS011;41355;50.390;19.096;2023-04-06T05:57:35;13.27;;;5.18;;
55493;SDS011;41355;50.390;19.096;2023-04-06T06:00:01;7.50;;;3.17;;
55493;SDS011;41355;50.390;19.096;2023-04-06T06:02:30;15.38;;;6.05;;
55493;SDS011;41355;50.390;19.096;2023-04-06T06:04:56;13.05;;;4.78;;
55493;SDS011;41355;50.390;19.096;2023-04-06T06:07:23;13.13;;;5.78;;
55493;SDS011;41355;50.390;19.096;2023-04-06T06:09:49;16.80;;;6.28;;
55493;SDS011;41355;50.390;19.096;2023-04-06T06:12:15;14.43;;;5.68;;
55493;SDS011;41355;50.390;19.096;2023-04-06T06:14:41;12.15;;;4.50;;
55493;SDS011;41355;50.390;19.096;2023-04-06T06:17:07;17.10;;;5.85;;
55493;SDS011;41355;50.390;19.096;2023-04-06T06:19:34;15.95;;;5.72;;
55493;SDS011;41355;50.390;19.096;2023-04-06T06:22:00;16.45;;;6.38;;
55493;SDS011;41355;50.390;19.096;2023-04-06T06:24:27;13.52;;;5.75;;
55493;SDS011;41355;50.390;19.096;2023-04-06T06:26:53;10.38;;;4.03;;
55493;SDS011;41355;50.390;19.096;2023-04-06T06:29:19;15.65;;;4.93;;
55493;SDS011;41355;50.390;19.096;2023-04-06T06:31:45;13.70;;;5.53;;
55493;SDS011;41355;50.390;19.096;2023-04-06T06:34:12;14.75;;;5.28;;
55493;SDS011;41355;50.390;19.096;2023-04-06T06:36:38;17.35;;;5.93;;
55493;SDS011;41355;50.390;19.096;2023-04-06T06:39:04;11.45;;;5.18;;
55493;SDS011;41355;50.390;19.096;2023-04-06T06:41:30;15.02;;;5.47;;
55493;SDS011;41355;50.390;19.096;2023-04-06T06:43:56;13.48;;;4.75;;
55493;SDS011;41355;50.390;19.096;2023-04-06T06:46:22;18.48;;;6.13;;
55493;SDS011;41355;50.390;19.096;2023-04-06T06:48:48;13.77;;;5.22;;
55493;SDS011;41355;50.390;19.096;2023-04-06T06:51:14;10.07;;;4.45;;
55493;SDS011;41355;50.390;19.096;2023-04-06T06:53:40;11.35;;;4.63;;
55493;SDS011;41355;50.390;19.096;2023-04-06T06:56:06;17.65;;;5.18;;
55493;SDS011;41355;50.390;19.096;2023-04-06T06:58:32;14.57;;;6.53;;
55493;SDS011;41355;50.390;19.096;2023-04-06T07:00:58;16.58;;;7.28;;
55493;SDS011;41355;50.390;19.096;2023-04-06T07:03:25;13.50;;;6.07;;
55493;SDS011;41355;50.390;19.096;2023-04-06T07:05:51;16.17;;;7.68;;
55493;SDS011;41355;50.390;19.096;2023-04-06T07:08:20;16.33;;;6.90;;
55493;SDS011;41355;50.390;19.096;2023-04-06T07:10:47;13.07;;;5.60;;
55493;SDS011;41355;50.390;19.096;2023-04-06T07:13:13;20.52;;;8.07;;
55493;SDS011;41355;50.390;19.096;2023-04-06T07:15:46;13.63;;;5.95;;
55493;SDS011;41355;50.390;19.096;2023-04-06T07:18:12;17.00;;;7.80;;
55493;SDS011;41355;50.390;19.096;2023-04-06T07:20:38;15.82;;;5.88;;
55493;SDS011;41355;50.390;19.096;2023-04-06T07:23:05;17.30;;;6.57;;
55493;SDS011;41355;50.390;19.096;2023-04-06T07:25:31;15.52;;;6.68;;
55493;SDS011;41355;50.390;19.096;2023-04-06T07:27:57;17.88;;;7.35;;
55493;SDS011;41355;50.390;19.096;2023-04-06T07:30:23;14.73;;;5.65;;
55493;SDS011;41355;50.390;19.096;2023-04-06T07:32:53;13.55;;;5.30;;
55493;SDS011;41355;50.390;19.096;2023-04-06T07:35:24;11.48;;;5.28;;
55493;SDS011;41355;50.390;19.096;2023-04-06T07:37:51;9.80;;;5.30;;
55493;SDS011;41355;50.390;19.096;2023-04-06T07:40:17;14.63;;;5.88;;
55493;SDS011;41355;50.390;19.096;2023-04-06T07:42:44;14.65;;;5.97;;
55493;SDS011;41355;50.390;19.096;2023-04-06T07:45:10;11.55;;;5.63;;
55493;SDS011;41355;50.390;19.096;2023-04-06T07:47:36;13.55;;;6.20;;
55493;SDS011;41355;50.390;19.096;2023-04-06T07:50:02;12.98;;;6.50;;
55493;SDS011;41355;50.390;19.096;2023-04-06T07:52:29;11.90;;;6.00;;
55493;SDS011;41355;50.390;19.096;2023-04-06T07:54:57;14.18;;;6.18;;
55493;SDS011;41355;50.390;19.096;2023-04-06T07:57:23;12.35;;;5.65;;
55493;SDS011;41355;50.390;19.096;2023-04-06T07:59:49;11.25;;;4.95;;
55493;SDS011;41355;50.390;19.096;2023-04-06T08:02:15;14.02;;;7.13;;
55493;SDS011;41355;50.390;19.096;2023-04-06T08:04:41;14.70;;;6.07;;
55493;SDS011;41355;50.390;19.096;2023-04-06T08:07:07;11.05;;;4.70;;
55493;SDS011;41355;50.390;19.096;2023-04-06T08:09:33;14.40;;;6.70;;
55493;SDS011;41355;50.390;19.096;2023-04-06T08:11:59;13.70;;;5.35;;
55493;SDS011;41355;50.390;19.096;2023-04-06T08:14:25;12.90;;;5.40;;
55493;SDS011;41355;50.390;19.096;2023-04-06T08:16:52;15.50;;;6.97;;
55493;SDS011;41355;50.390;19.096;2023-04-06T08:19:18;16.30;;;7.07;;
55493;SDS011;41355;50.390;19.096;2023-04-06T08:21:47;14.80;;;7.57;;
55493;SDS011;41355;50.390;19.096;2023-04-06T08:24:13;17.23;;;7.07;;
55493;SDS011;41355;50.390;19.096;2023-04-06T08:26:39;15.60;;;5.70;;
55493;SDS011;41355;50.390;19.096;2023-04-06T08:29:05;13.90;;;5.93;;
55493;SDS011;41355;50.390;19.096;2023-04-06T08:31:35;17.20;;;6.97;;
55493;SDS011;41355;50.390;19.096;2023-04-06T08:34:02;11.35;;;5.10;;
55493;SDS011;41355;50.390;19.096;2023-04-06T08:36:29;15.55;;;8.02;;
55493;SDS011;41355;50.390;19.096;2023-04-06T08:38:55;16.92;;;7.85;;
55493;SDS011;41355;50.390;19.096;2023-04-06T08:41:21;19.52;;;7.25;;
55493;SDS011;41355;50.390;19.096;2023-04-06T08:46:20;25.63;;;9.48;;
55493;SDS011;41355;50.390;19.096;2023-04-06T08:48:47;22.65;;;9.95;;
55493;SDS011;41355;50.390;19.096;2023-04-06T08:51:16;16.02;;;8.50;;
55493;SDS011;41355;50.390;19.096;2023-04-06T08:53:43;23.73;;;10.23;;
55493;SDS011;41355;50.390;19.096;2023-04-06T08:56:09;31.02;;;14.32;;
55493;SDS011;41355;50.390;19.096;2023-04-06T08:58:37;22.98;;;10.50;;
55493;SDS011;41355;50.390;19.096;2023-04-06T09:01:08;20.25;;;10.90;;
55493;SDS011;41355;50.390;19.096;2023-04-06T09:03:36;28.33;;;10.30;;
55493;SDS011;41355;50.390;19.096;2023-04-06T09:06:03;18.35;;;7.63;;
55493;SDS011;41355;50.390;19.096;2023-04-06T09:08:30;20.42;;;9.30;;
55493;SDS011;41355;50.390;19.096;2023-04-06T09:10:56;15.20;;;6.93;;
55493;SDS011;41355;50.390;19.096;2023-04-06T09:13:22;16.30;;;9.38;;
55493;SDS011;41355;50.390;19.096;2023-04-06T09:15:58;16.63;;;8.02;;
55493;SDS011;41355;50.390;19.096;2023-04-06T09:18:27;12.18;;;6.35;;
55493;SDS011;41355;50.390;19.096;2023-04-06T09:21:01;14.20;;;6.38;;
55493;SDS011;41355;50.390;19.096;2023-04-06T09:23:27;13.77;;;7.40;;
55493;SDS011;41355;50.390;19.096;2023-04-06T09:26:06;17.80;;;6.60;;
55493;SDS011;41355;50.390;19.096;2023-04-06T09:31:08;13.25;;;6.72;;
55493;SDS011;41355;50.390;19.096;2023-04-06T09:33:38;14.82;;;7.50;;
55493;SDS011;41355;50.390;19.096;2023-04-06T09:36:05;15.25;;;6.47;;
55493;SDS011;41355;50.390;19.096;2023-04-06T09:38:31;13.85;;;5.18;;
55493;SDS011;41355;50.390;19.096;2023-04-06T09:40:57;13.77;;;5.47;;
55493;SDS011;41355;50.390;19.096;2023-04-06T09:43:24;14.52;;;5.18;;
55493;SDS011;41355;50.390;19.096;2023-04-06T09:45:51;17.05;;;7.63;;
55493;SDS011;41355;50.390;19.096;2023-04-06T09:48:18;12.55;;;6.07;;
55493;SDS011;41355;50.390;19.096;2023-04-06T09:50:47;14.15;;;6.68;;
55493;SDS011;41355;50.390;19.096;2023-04-06T09:53:13;14.23;;;5.13;;
55493;SDS011;41355;50.390;19.096;2023-04-06T09:55:40;11.68;;;5.85;;
55493;SDS011;41355;50.390;19.096;2023-04-06T09:58:12;11.77;;;5.47;;
55493;SDS011;41355;50.390;19.096;2023-04-06T10:00:51;14.43;;;6.90;;
55493;SDS011;41355;50.390;19.096;2023-04-06T10:08:17;12.82;;;5.43;;
55493;SDS011;41355;50.390;19.096;2023-04-06T10:10:44;14.88;;;7.20;;
55493;SDS011;41355;50.390;19.096;2023-04-06T10:13:11;10.30;;;4.97;;
55493;SDS011;41355;50.390;19.096;2023-04-06T10:15:37;9.18;;;3.47;;
55493;SDS011;41355;50.390;19.096;2023-04-06T10:18:07;14.43;;;4.75;;
55493;SDS011;41355;50.390;19.096;2023-04-06T10:20:41;11.52;;;6.50;;
55493;SDS011;41355;50.390;19.096;2023-04-06T10:23:13;11.75;;;4.63;;
55493;SDS011;41355;50.390;19.096;2023-04-06T10:25:51;14.90;;;6.70;;
55493;SDS011;41355;50.390;19.096;2023-04-06T10:28:18;13.95;;;6.20;;
55493;SDS011;41355;50.390;19.096;2023-04-06T10:30:44;14.43;;;5.47;;
55493;SDS011;41355;50.390;19.096;2023-04-06T10:33:17;16.77;;;6.05;;
55493;SDS011;41355;50.390;19.096;2023-04-06T10:35:44;13.77;;;6.68;;
55493;SDS011;41355;50.390;19.096;2023-04-06T10:38:10;12.10;;;6.18;;
55493;SDS011;41355;50.390;19.096;2023-04-06T10:40:40;13.68;;;5.63;;
55493;SDS011;41355;50.390;19.096;2023-04-06T10:45:54;13.35;;;5.85;;
55493;SDS011;41355;50.390;19.096;2023-04-06T10:48:21;11.27;;;5.40;;
55493;SDS011;41355;50.390;19.096;2023-04-06T10:50:51;13.25;;;5.03;;
55493;SDS011;41355;50.390;19.096;2023-04-06T10:53:22;10.30;;;5.05;;
55493;SDS011;41355;50.390;19.096;2023-04-06T10:55:52;12.13;;;5.63;;
55493;SDS011;41355;50.390;19.096;2023-04-06T10:58:19;11.50;;;5.60;;
55493;SDS011;41355;50.390;19.096;2023-04-06T11:00:48;11.75;;;5.93;;
55493;SDS011;41355;50.390;19.096;2023-04-06T11:03:15;14.25;;;6.25;;
55493;SDS011;41355;50.390;19.096;2023-04-06T11:05:45;15.10;;;6.13;;
55493;SDS011;41355;50.390;19.096;2023-04-06T11:08:28;13.15;;;5.80;;
55493;SDS011;41355;50.390;19.096;2023-04-06T11:11:04;9.30;;;4.28;;
55493;SDS011;41355;50.390;19.096;2023-04-06T11:13:44;11.23;;;4.30;;
55493;SDS011;41355;50.390;19.096;2023-04-06T11:16:14;12.15;;;5.32;;
55493;SDS011;41355;50.390;19.096;2023-04-06T11:18:47;8.68;;;3.65;;
55493;SDS011;41355;50.390;19.096;2023-04-06T11:21:13;10.07;;;5.05;;
55493;SDS011;41355;50.390;19.096;2023-04-06T11:23:39;12.55;;;5.15;;
55493;SDS011;41355;50.390;19.096;2023-04-06T11:26:09;9.73;;;4.72;;
55493;SDS011;41355;50.390;19.096;2023-04-06T11:28:35;13.57;;;6.18;;
55493;SDS011;41355;50.390;19.096;2023-04-06T11:31:01;12.48;;;5.70;;
55493;SDS011;41355;50.390;19.096;2023-04-06T11:33:28;11.32;;;5.43;;
55493;SDS011;41355;50.390;19.096;2023-04-06T11:35:58;12.15;;;5.35;;
55493;SDS011;41355;50.390;19.096;2023-04-06T11:38:24;12.52;;;5.60;;
55493;SDS011;41355;50.390;19.096;2023-04-06T11:40:53;10.77;;;4.20;;
55493;SDS011;41355;50.390;19.096;2023-04-06T11:43:25;12.15;;;5.90;;
55493;SDS011;41355;50.390;19.096;2023-04-06T11:45:52;7.72;;;3.67;;
55493;SDS011;41355;50.390;19.096;2023-04-06T11:48:26;13.68;;;5.97;;
55493;SDS011;41355;50.390;19.096;2023-04-06T11:50:55;12.50;;;5.75;;
55493;SDS011;41355;50.390;19.096;2023-04-06T11:53:22;13.07;;;6.22;;
55493;SDS011;41355;50.390;19.096;2023-04-06T11:55:48;8.65;;;4.20;;
55493;SDS011;41355;50.390;19.096;2023-04-06T11:58:14;14.18;;;6.10;;
55493;SDS011;41355;50.390;19.096;2023-04-06T12:00:40;10.30;;;4.22;;
55493;SDS011;41355;50.390;19.096;2023-04-06T12:03:10;7.30;;;3.63;;
55493;SDS011;41355;50.390;19.096;2023-04-06T12:05:36;9.50;;;4.10;;
55493;SDS011;41355;50.390;19.096;2023-04-06T12:08:02;14.80;;;4.45;;
55493;SDS011;41355;50.390;19.096;2023-04-06T12:10:28;11.60;;;4.63;;
55493;SDS011;41355;50.390;19.096;2023-04-06T12:12:54;11.85;;;5.75;;
55493;SDS011;41355;50.390;19.096;2023-04-06T12:15:20;14.82;;;5.57;;
55493;SDS011;41355;50.390;19.096;2023-04-06T12:17:47;12.18;;;5.10;;
55493;SDS011;41355;50.390;19.096;2023-04-06T12:20:14;13.23;;;5.22;;
55493;SDS011;41355;50.390;19.096;2023-04-06T12:22:40;13.50;;;6.70;;
55493;SDS011;41355;50.390;19.096;2023-04-06T12:25:07;12.73;;;6.28;;
55493;SDS011;41355;50.390;19.096;2023-04-06T12:27:33;11.38;;;5.93;;
55493;SDS011;41355;50.390;19.096;2023-04-06T12:29:59;14.23;;;6.15;;
55493;SDS011;41355;50.390;19.096;2023-04-06T12:32:25;16.77;;;8.02;;
55493;SDS011;41355;50.390;19.096;2023-04-06T12:34:54;11.60;;;4.43;;
55493;SDS011;41355;50.390;19.096;2023-04-06T12:37:20;16.90;;;7.57;;
55493;SDS011;41355;50.390;19.096;2023-04-06T12:39:46;9.45;;;4.70;;
55493;SDS011;41355;50.390;19.096;2023-04-06T12:42:13;15.50;;;5.97;;
55493;SDS011;41355;50.390;19.096;2023-04-06T12:44:39;9.35;;;5.13;;
55493;SDS011;41355;50.390;19.096;2023-04-06T12:47:07;16.52;;;5.32;;
55493;SDS011;41355;50.390;19.096;2023-04-06T12:49:33;14.25;;;7.63;;
55493;SDS011;41355;50.390;19.096;2023-04-06T12:52:00;13.55;;;7.38;;
55493;SDS011;41355;50.390;19.096;2023-04-06T12:54:27;13.88;;;7.07;;
55493;SDS011;41355;50.390;19.096;2023-04-06T12:56:53;16.73;;;7.03;;
55493;SDS011;41355;50.390;19.096;2023-04-06T12:59:21;17.33;;;7.85;;
55493;SDS011;41355;50.390;19.096;2023-04-06T13:01:47;13.52;;;5.75;;
55493;SDS011;41355;50.390;19.096;2023-04-06T13:04:13;15.85;;;7.85;;
55493;SDS011;41355;50.390;19.096;2023-04-06T13:06:40;14.50;;;6.68;;
55493;SDS011;41355;50.390;19.096;2023-04-06T13:09:06;12.18;;;6.68;;
55493;SDS011;41355;50.390;19.096;2023-04-06T13:11:32;20.05;;;8.32;;
55493;SDS011;41355;50.390;19.096;2023-04-06T13:13:58;12.23;;;5.78;;
55493;SDS011;41355;50.390;19.096;2023-04-06T13:16:25;12.98;;;6.80;;
55493;SDS011;41355;50.390;19.096;2023-04-06T13:18:51;15.05;;;6.63;;
55493;SDS011;41355;50.390;19.096;2023-04-06T13:21:17;12.48;;;6.40;;
55493;SDS011;41355;50.390;19.096;2023-04-06T13:23:44;16.90;;;7.55;;
55493;SDS011;41355;50.390;19.096;2023-04-06T13:26:10;17.80;;;7.63;;
55493;SDS011;41355;50.390;19.096;2023-04-06T13:28:36;17.23;;;7.40;;
55493;SDS011;41355;50.390;19.096;2023-04-06T13:31:06;19.35;;;9.13;;
55493;SDS011;41355;50.390;19.096;2023-04-06T13:33:33;16.98;;;8.07;;
55493;SDS011;41355;50.390;19.096;2023-04-06T13:35:59;15.98;;;7.32;;
55493;SDS011;41355;50.390;19.096;2023-04-06T13:38:25;13.63;;;7.18;;
55493;SDS011;41355;50.390;19.096;2023-04-06T13:40:52;16.35;;;6.50;;
55493;SDS011;41355;50.390;19.096;2023-04-06T13:43:18;21.73;;;9.07;;
55493;SDS011;41355;50.390;19.096;2023-04-06T13:45:48;22.25;;;8.00;;
55493;SDS011;41355;50.390;19.096;2023-04-06T13:48:15;19.92;;;7.45;;
55493;SDS011;41355;50.390;19.096;2023-04-06T13:50:41;22.85;;;8.23;;
55493;SDS011;41355;50.390;19.096;2023-04-06T13:53:07;18.42;;;8.02;;
55493;SDS011;41355;50.390;19.096;2023-04-06T13:55:33;20.35;;;7.07;;
55493;SDS011;41355;50.390;19.096;2023-04-06T13:57:59;20.60;;;9.18;;
55493;SDS011;41355;50.390;19.096;2023-04-06T14:00:25;20.67;;;10.50;;
55493;SDS011;41355;50.390;19.096;2023-04-06T14:02:53;18.10;;;7.40;;
55493;SDS011;41355;50.390;19.096;2023-04-06T14:05:20;17.15;;;7.70;;
55493;SDS011;41355;50.390;19.096;2023-04-06T14:07:46;15.40;;;6.60;;
55493;SDS011;41355;50.390;19.096;2023-04-06T14:10:12;11.80;;;5.43;;
55493;SDS011;41355;50.390;19.096;2023-04-06T14:12:40;18.15;;;6.82;;
55493;SDS011;41355;50.390;19.096;2023-04-06T14:15:06;11.27;;;4.07;;
55493;SDS011;41355;50.390;19.096;2023-04-06T14:17:33;21.70;;;7.72;;
55493;SDS011;41355;50.390;19.096;2023-04-06T14:19:59;20.10;;;8.45;;
55493;SDS011;41355;50.390;19.096;2023-04-06T14:22:25;15.02;;;6.78;;
55493;SDS011;41355;50.390;19.096;2023-04-06T14:24:51;7.65;;;3.75;;
55493;SDS011;41355;50.390;19.096;2023-04-06T14:27:17;19.55;;;7.15;;
55493;SDS011;41355;50.390;19.096;2023-04-06T14:29:43;13.13;;;5.90;;
55493;SDS011;41355;50.390;19.096;2023-04-06T14:32:09;14.98;;;5.28;;